Terminal Aerodrome Forecast
Issued by NWS

Home | Current Version | Previous Version | Text Only | Print | Product List | Glossary On
Versions: 1 2 3 4 5 6 7 8 9 10 11 12 13
000
FTUS45 KABQ 011127
TAFLVS
TAF
KLVS 011127Z 0112/0212 VRB05KT P6SM SCT130 BKN200
     FM011900 20012G19KT P6SM VCTS SCT080CB BKN140
     FM012200 22013KT P6SM VCSH SCT090 BKN150
     FM020400 22006KT P6SM SCT120 BKN200=

USA.gov is the U.S. government's official web portal to all federal, state and local government web resources and services.